Grosse Pointe Woods, Michigan
Current Conditions -  °F | °C
As of 3:53 AM on Monday 20 Oct 2014 (Local Time) from KDET Reporting Station
Overcast Overcast  
Wind Chill: 52°   Ceiling: 8000
Heat Index: 52°   Visibility: 10mi
Dew Point: 38°   Wind: 10mph
Humidity: 59%   Direction: 220°SW
Pressure: 29.92"   Gusts: NA
Location:  42.4243°N, 82.8975°W
Report Text: KDET 200753Z 22009KT 10SM OVC080 11/03 A2992 RMK AO2 SLP132 T01110033
Loading
Personal Weather Stations






























Interactive Weather Map
Tropical Storm Tracking
New forecast layout! Learn more

10-Day Weather Forecast

Advertisements
Track Severe Weather on mobile